Terminal Aerodrome Forecast
Issued by NWS

Home | Current Version | Previous Version | Text Only | Print | Product List | Glossary On
Versions: 1 2 3 4 5 6 7 8 9 10 11 12 13 14 15 16 17 18 19 20
000
FTAK31 PAJN 111138
TAFAYA
TAF
PAYA 111138Z 1112/1212 14015G25KT 4SM -RA BR SCT014 BKN020 OVC028
      WS020/13060KT
      TEMPO 1112/1116 2SM RA BR SCT009 BKN012 OVC022
     FM111800 15010KT P6SM VCSH SCT015 OVC035
     FM112100 13004KT P6SM VCSH SCT035 BKN050
     FM120000 08003KT P6SM SCT040 BKN080
      AMD LTD TO CLD VIS AND WIND=

USA.gov is the U.S. government's official web portal to all federal, state and local government web resources and services.